createdAt,value
2018-07-08T00:00:55.782Z,3.27
2018-07-08T00:05:59.389Z,3.23
2018-07-08T00:11:03.028Z,3.23
2018-07-08T00:16:06.660Z,3.07
2018-07-08T00:21:10.237Z,3.53
2018-07-08T00:26:13.877Z,3.00
2018-07-08T00:31:17.508Z,3.33
2018-07-08T00:36:21.101Z,3.17
2018-07-08T00:41:24.754Z,3.47
2018-07-08T00:46:28.331Z,3.57
2018-07-08T00:51:31.872Z,3.80
2018-07-08T00:56:35.452Z,2.77
2018-07-08T01:01:39.148Z,3.73
2018-07-08T01:06:42.720Z,3.67
2018-07-08T01:11:46.253Z,3.43
2018-07-08T01:16:49.926Z,3.83
2018-07-08T01:21:53.542Z,2.93
2018-07-08T01:26:58.115Z,4.03
2018-07-08T01:32:02.234Z,3.77
2018-07-08T01:37:06.244Z,3.70
2018-07-08T01:42:10.657Z,4.60
2018-07-08T01:47:14.233Z,4.40
2018-07-08T01:52:17.758Z,4.20
2018-07-08T01:57:21.421Z,4.07
2018-07-08T02:02:25.045Z,4.60
2018-07-08T02:07:29.518Z,4.50
2018-07-08T02:12:33.627Z,5.00
2018-07-08T02:17:37.510Z,3.93
2018-07-08T02:22:42.032Z,3.77
2018-07-08T02:27:45.686Z,4.10
2018-07-08T02:32:49.318Z,5.13
2018-07-08T02:37:53.029Z,4.20
2018-07-08T02:42:56.577Z,4.57
2018-07-08T02:48:00.930Z,5.87
2018-07-08T02:53:06.039Z,5.30
2018-07-08T02:58:09.897Z,5.83
2018-07-08T03:03:13.496Z,5.00
2018-07-08T03:08:17.118Z,6.43
2018-07-08T03:13:20.617Z,5.00
2018-07-08T03:18:24.448Z,4.30
2018-07-08T03:23:28.144Z,5.87
2018-07-08T03:28:32.053Z,6.03
2018-07-08T03:33:36.069Z,6.17
2018-07-08T03:38:39.744Z,5.80
2018-07-08T03:43:43.273Z,6.10
2018-07-08T03:48:47.073Z,5.80
2018-07-08T03:53:50.633Z,7.40
2018-07-08T03:58:55.744Z,6.70
2018-07-08T04:03:59.345Z,5.57
2018-07-08T04:09:02.986Z,5.63
2018-07-08T04:14:06.586Z,5.73
2018-07-08T04:19:10.448Z,6.77
2018-07-08T04:24:14.013Z,6.30
2018-07-08T04:29:17.901Z,5.53
2018-07-08T04:34:21.878Z,6.97
2018-07-08T04:39:25.442Z,5.70
2018-07-08T04:44:28.956Z,6.10
2018-07-08T04:49:32.556Z,6.37
2018-07-08T04:54:36.065Z,5.33
2018-07-08T04:59:39.935Z,5.13
2018-07-08T05:04:44.510Z,4.87
2018-07-08T05:09:48.224Z,5.43
2018-07-08T05:14:51.772Z,5.07
2018-07-08T05:19:55.385Z,4.70
2018-07-08T05:24:59.363Z,3.77
2018-07-08T05:30:03.336Z,3.80
2018-07-08T05:35:06.861Z,5.00
2018-07-08T05:40:10.542Z,4.70
2018-07-08T05:45:14.077Z,5.47
2018-07-08T05:50:18.262Z,5.20
2018-07-08T05:55:21.810Z,5.20
2018-07-08T06:00:33.962Z,5.33
2018-07-08T06:05:37.662Z,4.77
2018-07-08T06:10:41.725Z,5.03
2018-07-08T06:15:45.305Z,5.30
2018-07-08T06:20:49.077Z,5.33
2018-07-08T06:25:52.670Z,5.30
2018-07-08T06:30:56.333Z,5.30
2018-07-08T06:36:00.161Z,5.20
2018-07-08T06:41:03.778Z,4.23
2018-07-08T06:46:07.271Z,3.87
2018-07-08T06:51:10.934Z,4.80
2018-07-08T06:56:15.218Z,4.87
2018-07-08T07:01:19.480Z,3.67
2018-07-08T07:06:23.109Z,3.90
2018-07-08T07:11:26.688Z,4.13
2018-07-08T07:16:30.234Z,3.40
2018-07-08T07:21:33.867Z,4.60
2018-07-08T07:26:38.670Z,4.10
2018-07-08T07:31:42.341Z,3.73
2018-07-08T07:36:45.869Z,4.33
2018-07-08T07:41:49.412Z,2.57
2018-07-08T07:46:53.026Z,2.83
2018-07-08T07:51:56.607Z,3.87
2018-07-08T07:57:00.790Z,2.90
2018-07-08T08:02:04.360Z,3.40
2018-07-08T08:07:07.873Z,2.77
2018-07-08T08:12:11.474Z,4.10
2018-07-08T08:17:15.113Z,2.27
2018-07-08T08:22:18.694Z,2.70
2018-07-08T08:27:22.197Z,3.17
2018-07-08T08:32:25.787Z,2.93
2018-07-08T08:37:31.705Z,3.10
2018-07-08T08:42:36.049Z,2.20
2018-07-08T08:47:39.655Z,3.10
2018-07-08T08:52:43.591Z,2.10
2018-07-08T08:57:47.922Z,1.70
2018-07-08T09:02:52.285Z,1.50
2018-07-08T09:07:55.886Z,1.60
2018-07-08T09:12:59.711Z,1.73
2018-07-08T09:18:04.209Z,1.43
2018-07-08T09:23:08.395Z,1.60
2018-07-08T09:28:11.895Z,0.83
2018-07-08T09:33:15.743Z,1.07
2018-07-08T09:38:19.532Z,1.37
2018-07-08T09:43:23.090Z,1.13
2018-07-08T09:48:26.660Z,1.50
2018-07-08T09:53:30.360Z,1.10
2018-07-08T09:58:34.017Z,1.27
2018-07-08T10:03:37.571Z,0.77
2018-07-08T10:08:41.103Z,1.23
2018-07-08T10:13:44.761Z,1.53
2018-07-08T10:18:48.377Z,1.10
2018-07-08T10:23:51.970Z,0.97
2018-07-08T10:28:55.541Z,0.97
2018-07-08T10:34:00.963Z,1.60
2018-07-08T10:39:06.037Z,1.23
2018-07-08T10:44:11.677Z,1.80
2018-07-08T10:49:16.252Z,1.00
2018-07-08T10:54:20.262Z,0.70
2018-07-08T10:59:25.153Z,1.40
2018-07-08T11:04:30.530Z,0.80
2018-07-08T11:09:36.287Z,1.27
2018-07-08T11:14:41.725Z,1.20
2018-07-08T11:19:46.841Z,1.70
2018-07-08T11:24:51.613Z,1.57
2018-07-08T11:29:55.310Z,0.90
2018-07-08T11:34:59.922Z,1.53
2018-07-08T11:40:03.610Z,0.70
2018-07-08T11:45:07.710Z,1.30
2018-07-08T11:50:11.414Z,0.90
2018-07-08T11:55:16.055Z,1.53
2018-07-08T12:00:20.840Z,0.77
2018-07-08T12:05:24.441Z,1.00
2018-07-08T12:10:28.315Z,1.27
2018-07-08T12:15:31.795Z,0.80
2018-07-08T12:20:35.910Z,0.70
2018-07-08T12:25:39.415Z,0.70
2018-07-08T12:30:43.253Z,0.90
2018-07-08T12:35:47.057Z,0.83
2018-07-08T12:40:51.927Z,0.80
2018-07-08T12:45:56.313Z,1.17
2018-07-08T12:50:59.966Z,1.23
2018-07-08T12:56:04.069Z,0.90
2018-07-08T13:01:08.176Z,1.27
2018-07-08T13:06:11.894Z,0.93
2018-07-08T13:11:17.140Z,0.73
2018-07-08T13:16:20.897Z,0.77
2018-07-08T13:21:26.305Z,0.90
2018-07-08T13:26:29.879Z,1.17
2018-07-08T13:31:33.472Z,1.13
2018-07-08T13:36:38.093Z,1.10
2018-07-08T13:41:41.747Z,1.60
2018-07-08T13:46:45.297Z,1.57
2018-07-08T13:51:49.403Z,1.20
2018-07-08T13:56:53.637Z,1.27
2018-07-08T14:01:57.246Z,0.70
2018-07-08T14:07:01.601Z,0.93
2018-07-08T14:12:06.704Z,1.17
2018-07-08T14:17:12.146Z,1.10
2018-07-08T14:22:16.268Z,1.17
2018-07-08T14:27:19.797Z,1.23
2018-07-08T14:32:23.987Z,1.20
2018-07-08T14:37:27.571Z,1.00
2018-07-08T14:42:31.122Z,1.20
2018-07-08T14:47:35.982Z,0.90
2018-07-08T14:52:39.848Z,0.97
2018-07-08T14:57:43.390Z,1.27
2018-07-08T15:02:46.978Z,1.20
2018-07-08T15:07:50.540Z,1.67
2018-07-08T15:12:54.205Z,1.40
2018-07-08T15:17:58.247Z,1.30
2018-07-08T15:23:03.233Z,1.17
2018-07-08T15:28:07.968Z,1.40
2018-07-08T15:33:12.175Z,1.50
2018-07-08T15:38:15.995Z,1.40
2018-07-08T15:43:20.244Z,1.17
2018-07-08T15:48:24.187Z,0.90
2018-07-08T15:53:27.920Z,1.27
2018-07-08T15:58:31.426Z,1.33
2018-07-08T16:03:35.022Z,1.30
2018-07-08T16:08:39.206Z,1.40
2018-07-08T16:13:42.805Z,1.67
2018-07-08T16:18:47.016Z,1.67
2018-07-08T16:23:50.800Z,1.53
2018-07-08T16:28:54.347Z,1.40
2018-07-08T16:33:58.124Z,2.43
2018-07-08T16:39:01.853Z,1.43
2018-07-08T16:44:05.438Z,1.50
2018-07-08T16:49:09.933Z,1.40
2018-07-08T16:54:13.529Z,2.70
2018-07-08T16:59:17.444Z,2.13
2018-07-08T17:04:21.486Z,1.80
2018-07-08T17:09:25.051Z,1.37
2018-07-08T17:14:29.517Z,2.07
2018-07-08T17:19:33.076Z,1.53
2018-07-08T17:24:36.660Z,1.03
2018-07-08T17:29:40.232Z,1.27
2018-07-08T17:34:44.142Z,1.70
2018-07-08T17:39:47.686Z,1.57
2018-07-08T17:44:51.277Z,1.73
2018-07-08T17:49:55.346Z,1.93
2018-07-08T17:54:59.576Z,1.50
2018-07-08T18:00:03.525Z,1.40
2018-07-08T18:05:09.445Z,1.57
2018-07-08T18:10:13.522Z,1.87
2018-07-08T18:15:19.363Z,1.70
2018-07-08T18:20:22.885Z,1.50
2018-07-08T18:25:28.084Z,1.30
2018-07-08T18:30:42.691Z,1.60
2018-07-08T18:35:46.898Z,1.50
2018-07-08T18:40:51.290Z,1.40
2018-07-08T18:45:55.720Z,1.63
2018-07-08T18:50:59.908Z,1.70
2018-07-08T18:56:03.578Z,1.50
2018-07-08T19:01:07.286Z,1.50
2018-07-08T19:06:12.226Z,1.70
2018-07-08T19:11:15.764Z,1.70
2018-07-08T19:16:20.392Z,1.70
2018-07-08T19:21:23.959Z,1.50
2018-07-08T19:26:27.645Z,1.80
2018-07-08T19:31:32.349Z,1.87
2018-07-08T19:36:38.128Z,1.60
2018-07-08T19:41:42.289Z,1.93
2018-07-08T19:46:46.832Z,1.77
2018-07-08T19:51:50.711Z,1.55
2018-07-08T19:56:54.541Z,1.43
2018-07-08T20:01:58.450Z,1.23
2018-07-08T20:07:02.380Z,1.33
2018-07-08T20:12:06.421Z,1.77
2018-07-08T20:17:11.420Z,1.37
2018-07-08T20:22:18.088Z,1.40
2018-07-08T20:27:23.085Z,2.17
2018-07-08T20:32:27.677Z,1.90
2018-07-08T20:37:31.619Z,2.33
2018-07-08T20:42:37.073Z,1.33
2018-07-08T20:47:40.925Z,1.87
2018-07-08T20:52:45.271Z,1.87
2018-07-08T20:57:50.419Z,2.20
2018-07-08T21:02:54.629Z,1.53
2018-07-08T21:07:59.422Z,2.33
2018-07-08T21:13:03.146Z,2.37
2018-07-08T21:18:06.973Z,2.03
2018-07-08T21:23:10.519Z,1.90
2018-07-08T21:28:16.024Z,2.10
2018-07-08T21:33:19.546Z,2.00
2018-07-08T21:38:23.403Z,2.10
2018-07-08T21:43:28.124Z,1.80
2018-07-08T21:48:33.027Z,1.90
2018-07-08T21:53:37.516Z,1.90
2018-07-08T21:58:43.126Z,2.77
2018-07-08T22:03:48.565Z,2.57
2018-07-08T22:08:52.767Z,2.40
2018-07-08T22:13:57.674Z,2.60
2018-07-08T22:19:03.050Z,2.60
2018-07-08T22:24:06.693Z,2.33
2018-07-08T22:29:11.099Z,2.50
2018-07-08T22:34:14.906Z,2.50
2018-07-08T22:39:18.482Z,3.03
2018-07-08T22:44:23.031Z,2.83
2018-07-08T22:49:27.104Z,3.10
2018-07-08T22:54:30.821Z,2.60
2018-07-08T22:59:44.479Z,3.00
2018-07-08T23:04:49.822Z,2.80
2018-07-08T23:09:53.453Z,3.27
2018-07-08T23:14:57.031Z,2.80
2018-07-08T23:20:00.990Z,3.03
2018-07-08T23:25:04.532Z,3.40
2018-07-08T23:30:11.425Z,2.23
2018-07-08T23:35:15.009Z,2.90
2018-07-08T23:40:18.600Z,3.20
2018-07-08T23:45:23.073Z,3.20
2018-07-08T23:50:27.623Z,3.20
2018-07-08T23:55:31.587Z,3.83
